sensor_id;sensor_type;location;lat;lon;timestamp;pressure;altitude;pressure_sealevel;temperature;humidity
68145;BME280;55400;51.824;-0.196;2023-03-24T00:03:12;98493.98;;;9.60;78.19
68145;BME280;55400;51.824;-0.196;2023-03-24T00:07:12;98493.98;;;9.59;78.19
68145;BME280;55400;51.824;-0.196;2023-03-24T00:11:13;98498.01999999999;;;9.60;78.27
68145;BME280;55400;51.824;-0.196;2023-03-24T00:15:13;98498.01999999999;;;9.56;77.92
68145;BME280;55400;51.824;-0.196;2023-03-24T00:19:12;98506.69;;;9.58;77.71
68145;BME280;55400;51.824;-0.196;2023-03-24T00:23:12;98513.48000000001;;;9.52;77.71
68145;BME280;55400;51.824;-0.196;2023-03-24T00:27:12;98518.76999999999;;;9.48;77.82
68145;BME280;55400;51.824;-0.196;2023-03-24T00:31:13;98518.76999999999;;;9.42;77.80
68145;BME280;55400;51.824;-0.196;2023-03-24T00:35:13;98517.78;;;9.43;77.87
68145;BME280;55400;51.824;-0.196;2023-03-24T00:39:12;98520.56999999999;;;9.40;77.66
68145;BME280;55400;51.824;-0.196;2023-03-24T00:43:12;98525.51;;;9.35;77.71
68145;BME280;55400;51.824;-0.196;2023-03-24T00:47:12;98539.62;;;9.36;77.71
68145;BME280;55400;51.824;-0.196;2023-03-24T00:51:12;98535.27;;;9.31;77.81
68145;BME280;55400;51.824;-0.196;2023-03-24T00:55:13;98535.27;;;9.30;77.81
68145;BME280;55400;51.824;-0.196;2023-03-24T00:59:12;98539.73999999999;;;9.27;77.75
68145;BME280;55400;51.824;-0.196;2023-03-24T01:03:12;98551.73;;;9.20;77.75
68145;BME280;55400;51.824;-0.196;2023-03-24T01:07:12;98551.73;;;9.23;77.88
68145;BME280;55400;51.824;-0.196;2023-03-24T01:11:12;98554.16;;;9.22;77.84
68145;BME280;55400;51.824;-0.196;2023-03-24T01:15:15;98552.78;;;9.12;77.82
68145;BME280;55400;51.824;-0.196;2023-03-24T01:19:12;98560.99;;;9.06;77.88
68145;BME280;55400;51.824;-0.196;2023-03-24T01:23:13;98560.99;;;9.04;77.88
68145;BME280;55400;51.824;-0.196;2023-03-24T01:27:13;98559.33;;;9.07;77.98
68145;BME280;55400;51.824;-0.196;2023-03-24T01:35:12;98576.59999999999;;;9.08;77.77
68145;BME280;55400;51.824;-0.196;2023-03-24T01:39:12;98578.66;;;9.07;77.56
68145;BME280;55400;51.824;-0.196;2023-03-24T01:43:15;98600.0;;;9.04;77.56
68145;BME280;55400;51.824;-0.196;2023-03-24T01:47:12;98603.94;;;8.99;77.66
68145;BME280;55400;51.824;-0.196;2023-03-24T01:51:14;98608.64;;;9.02;77.70
68145;BME280;55400;51.824;-0.196;2023-03-24T01:55:13;98609.99;;;9.05;77.70
68145;BME280;55400;51.824;-0.196;2023-03-24T01:59:13;98610.92;;;9.04;77.56
68145;BME280;55400;51.824;-0.196;2023-03-24T02:03:14;98610.44;;;9.05;77.43
68145;BME280;55400;51.824;-0.196;2023-03-24T02:07:15;98610.44;;;9.03;77.36
68145;BME280;55400;51.824;-0.196;2023-03-24T02:11:13;98628.41;;;8.99;77.41
68145;BME280;55400;51.824;-0.196;2023-03-24T02:15:13;98628.41;;;8.94;77.38
68145;BME280;55400;51.824;-0.196;2023-03-24T02:23:20;98639.04;;;8.93;77.34
68145;BME280;55400;51.824;-0.196;2023-03-24T02:27:18;98636.13;;;8.92;77.16
68145;BME280;55400;51.824;-0.196;2023-03-24T02:35:20;98640.97;;;8.91;76.79
68145;BME280;55400;51.824;-0.196;2023-03-24T02:43:16;98660.0;;;8.82;76.80
68145;BME280;55400;51.824;-0.196;2023-03-24T02:47:14;98661.79;;;8.79;76.96
68145;BME280;55400;51.824;-0.196;2023-03-24T02:51:14;98661.79;;;8.76;76.87
68145;BME280;55400;51.824;-0.196;2023-03-24T02:55:14;98669.98;;;8.74;76.80
68145;BME280;55400;51.824;-0.196;2023-03-24T02:59:15;98669.9;;;8.70;76.85
68145;BME280;55400;51.824;-0.196;2023-03-24T03:03:14;98669.9;;;8.67;76.85
68145;BME280;55400;51.824;-0.196;2023-03-24T03:07:13;98671.84;;;8.70;76.89
68145;BME280;55400;51.824;-0.196;2023-03-24T03:11:13;98674.73999999999;;;8.72;76.97
68145;BME280;55400;51.824;-0.196;2023-03-24T03:15:14;98678.23;;;8.71;76.53
68145;BME280;55400;51.824;-0.196;2023-03-24T03:19:13;98678.23;;;8.65;76.53
68145;BME280;55400;51.824;-0.196;2023-03-24T03:23:13;98677.61;;;8.60;76.56
68145;BME280;55400;51.824;-0.196;2023-03-24T03:27:13;98682.51000000001;;;8.55;76.60
68145;BME280;55400;51.824;-0.196;2023-03-24T03:31:13;98682.22;;;8.48;76.67
68145;BME280;55400;51.824;-0.196;2023-03-24T03:35:13;98682.56;;;8.45;76.80
68145;BME280;55400;51.824;-0.196;2023-03-24T03:39:13;98691.45999999999;;;8.41;76.88
68145;BME280;55400;51.824;-0.196;2023-03-24T03:43:13;98702.76;;;8.39;76.99
68145;BME280;55400;51.824;-0.196;2023-03-24T03:47:13;98702.76;;;8.37;76.99
68145;BME280;55400;51.824;-0.196;2023-03-24T03:51:13;98700.9;;;8.35;76.99
68145;BME280;55400;51.824;-0.196;2023-03-24T03:55:13;98700.9;;;8.29;76.99
68145;BME280;55400;51.824;-0.196;2023-03-24T03:59:21;98707.48;;;8.26;77.07
68145;BME280;55400;51.824;-0.196;2023-03-24T04:03:18;98707.14;;;8.23;77.14
68145;BME280;55400;51.824;-0.196;2023-03-24T04:07:14;98713.78;;;8.18;77.14
68145;BME280;55400;51.824;-0.196;2023-03-24T04:11:18;98718.9;;;8.21;77.19
68145;BME280;55400;51.824;-0.196;2023-03-24T04:15:18;98718.9;;;8.19;77.19
68145;BME280;55400;51.824;-0.196;2023-03-24T04:19:17;98714.95;;;8.15;77.10
68145;BME280;55400;51.824;-0.196;2023-03-24T04:27:14;98725.76000000001;;;8.10;77.25
68145;BME280;55400;51.824;-0.196;2023-03-24T04:31:14;98725.76000000001;;;8.09;77.22
68145;BME280;55400;51.824;-0.196;2023-03-24T04:35:16;98727.4;;;8.10;77.17
68145;BME280;55400;51.824;-0.196;2023-03-24T04:39:15;98727.4;;;8.07;77.17
68145;BME280;55400;51.824;-0.196;2023-03-24T04:43:14;98732.2;;;8.01;77.25
68145;BME280;55400;51.824;-0.196;2023-03-24T04:47:13;98735.61;;;7.98;77.22
68145;BME280;55400;51.824;-0.196;2023-03-24T04:59:13;98738.79;;;7.97;76.98
68145;BME280;55400;51.824;-0.196;2023-03-24T05:03:13;98738.79;;;7.98;76.98
68145;BME280;55400;51.824;-0.196;2023-03-24T05:07:13;98743.7;;;7.91;77.05
68145;BME280;55400;51.824;-0.196;2023-03-24T05:11:13;98743.7;;;7.86;77.05
68145;BME280;55400;51.824;-0.196;2023-03-24T05:15:13;98759.33;;;7.81;77.34
68145;BME280;55400;51.824;-0.196;2023-03-24T05:19:13;98759.33;;;7.73;77.34
68145;BME280;55400;51.824;-0.196;2023-03-24T05:23:13;98769.76;;;7.72;77.72
68145;BME280;55400;51.824;-0.196;2023-03-24T05:27:13;98776.01;;;7.68;77.72
68145;BME280;55400;51.824;-0.196;2023-03-24T05:31:13;98776.01;;;7.65;77.86
68145;BME280;55400;51.824;-0.196;2023-03-24T05:35:13;98771.29;;;7.66;78.02
68145;BME280;55400;51.824;-0.196;2023-03-24T05:43:13;98777.04;;;7.61;77.99
68145;BME280;55400;51.824;-0.196;2023-03-24T05:47:13;98780.51000000001;;;7.60;78.17
68145;BME280;55400;51.824;-0.196;2023-03-24T05:51:13;98780.51000000001;;;7.55;78.01
68145;BME280;55400;51.824;-0.196;2023-03-24T05:55:13;98776.45;;;7.52;78.32
68145;BME280;55400;51.824;-0.196;2023-03-24T06:03:13;98771.25;;;7.55;78.34
68145;BME280;55400;51.824;-0.196;2023-03-24T06:07:13;98770.33;;;7.54;78.15
68145;BME280;55400;51.824;-0.196;2023-03-24T06:11:13;98779.40999999999;;;7.55;78.46
68145;BME280;55400;51.824;-0.196;2023-03-24T06:15:13;98785.27;;;7.51;77.97
68145;BME280;55400;51.824;-0.196;2023-03-24T06:19:13;98784.97;;;7.47;78.42
68145;BME280;55400;51.824;-0.196;2023-03-24T06:27:13;98788.76000000001;;;7.46;78.43
68145;BME280;55400;51.824;-0.196;2023-03-24T06:35:14;98791.29000000001;;;7.47;78.21
68145;BME280;55400;51.824;-0.196;2023-03-24T06:39:13;98790.73;;;7.46;78.00
68145;BME280;55400;51.824;-0.196;2023-03-24T06:43:13;98795.04;;;7.47;78.05
68145;BME280;55400;51.824;-0.196;2023-03-24T06:47:13;98797.97;;;7.45;78.10
68145;BME280;55400;51.824;-0.196;2023-03-24T06:51:13;98797.97;;;7.50;78.52
68145;BME280;55400;51.824;-0.196;2023-03-24T06:55:13;98806.29000000001;;;7.49;78.11
68145;BME280;55400;51.824;-0.196;2023-03-24T06:59:13;98796.94;;;7.50;78.24
68145;BME280;55400;51.824;-0.196;2023-03-24T07:07:13;98792.92;;;7.52;78.51
68145;BME280;55400;51.824;-0.196;2023-03-24T07:11:14;98792.92;;;7.55;78.62
68145;BME280;55400;51.824;-0.196;2023-03-24T07:15:13;98799.41;;;7.61;78.74
68145;BME280;55400;51.824;-0.196;2023-03-24T07:19:13;98804.04999999999;;;7.70;78.44
68145;BME280;55400;51.824;-0.196;2023-03-24T07:23:13;98804.04999999999;;;7.76;78.44
68145;BME280;55400;51.824;-0.196;2023-03-24T07:27:13;98810.31;;;7.82;78.51
68145;BME280;55400;51.824;-0.196;2023-03-24T07:31:13;98810.31;;;7.87;78.60
68145;BME280;55400;51.824;-0.196;2023-03-24T07:35:14;98817.74;;;7.96;78.54
68145;BME280;55400;51.824;-0.196;2023-03-24T07:39:13;98835.55;;;8.06;78.43
68145;BME280;55400;51.824;-0.196;2023-03-24T07:43:14;98836.19;;;8.12;78.44
68145;BME280;55400;51.824;-0.196;2023-03-24T07:47:14;98836.19;;;8.18;78.27
68145;BME280;55400;51.824;-0.196;2023-03-24T07:51:13;98852.75;;;8.22;78.29
68145;BME280;55400;51.824;-0.196;2023-03-24T07:55:14;98852.01;;;8.25;78.56
68145;BME280;55400;51.824;-0.196;2023-03-24T07:59:14;98851.4;;;8.31;78.48
68145;BME280;55400;51.824;-0.196;2023-03-24T08:03:14;98868.40999999999;;;8.37;77.96
68145;BME280;55400;51.824;-0.196;2023-03-24T08:07:14;98864.62;;;8.45;77.96
68145;BME280;55400;51.824;-0.196;2023-03-24T08:11:14;98864.62;;;8.54;77.86
68145;BME280;55400;51.824;-0.196;2023-03-24T08:15:14;98868.86;;;8.55;77.45
68145;BME280;55400;51.824;-0.196;2023-03-24T08:19:14;98875.83;;;8.57;77.45
68145;BME280;55400;51.824;-0.196;2023-03-24T08:23:14;98884.32;;;8.62;77.26
68145;BME280;55400;51.824;-0.196;2023-03-24T08:27:14;98878.88;;;8.69;77.26
68145;BME280;55400;51.824;-0.196;2023-03-24T08:31:14;98875.18;;;8.78;77.29
68145;BME280;55400;51.824;-0.196;2023-03-24T08:35:15;98878.8;;;8.90;77.29
68145;BME280;55400;51.824;-0.196;2023-03-24T08:39:14;98883.31;;;8.96;76.89
68145;BME280;55400;51.824;-0.196;2023-03-24T08:43:14;98890.92000000001;;;9.10;76.53
68145;BME280;55400;51.824;-0.196;2023-03-24T08:47:14;98885.05;;;9.13;76.20
68145;BME280;55400;51.824;-0.196;2023-03-24T08:51:14;98885.05;;;9.25;75.87
68145;BME280;55400;51.824;-0.196;2023-03-24T08:55:14;98893.16;;;9.42;75.80
68145;BME280;55400;51.824;-0.196;2023-03-24T08:59:14;98893.16;;;9.58;75.31
68145;BME280;55400;51.824;-0.196;2023-03-24T09:03:14;98874.34;;;9.70;74.61
68145;BME280;55400;51.824;-0.196;2023-03-24T09:07:14;98883.15;;;9.72;73.36
68145;BME280;55400;51.824;-0.196;2023-03-24T09:11:14;98889.65;;;9.88;73.87
68145;BME280;55400;51.824;-0.196;2023-03-24T09:15:14;98889.65;;;10.09;73.87
68145;BME280;55400;51.824;-0.196;2023-03-24T09:19:14;98882.39;;;10.20;72.95
68145;BME280;55400;51.824;-0.196;2023-03-24T09:23:14;98879.14;;;10.29;72.03
68145;BME280;55400;51.824;-0.196;2023-03-24T09:27:14;98880.58;;;10.37;72.08
68145;BME280;55400;51.824;-0.196;2023-03-24T09:31:14;98880.16;;;10.46;72.04
68145;BME280;55400;51.824;-0.196;2023-03-24T09:35:14;98890.64;;;10.42;70.99
68145;BME280;55400;51.824;-0.196;2023-03-24T09:39:14;98890.64;;;10.40;70.99
68145;BME280;55400;51.824;-0.196;2023-03-24T09:43:15;98881.23000000001;;;10.41;70.51
68145;BME280;55400;51.824;-0.196;2023-03-24T09:47:15;98881.23000000001;;;10.42;70.51
68145;BME280;55400;51.824;-0.196;2023-03-24T09:51:16;98879.45999999999;;;10.44;69.76
68145;BME280;55400;51.824;-0.196;2023-03-24T09:55:15;98883.48999999999;;;10.57;69.76
68145;BME280;55400;51.824;-0.196;2023-03-24T09:59:15;98887.92;;;10.61;67.48
68145;BME280;55400;51.824;-0.196;2023-03-24T10:03:16;98889.84;;;10.72;67.48
68145;BME280;55400;51.824;-0.196;2023-03-24T10:07:15;98893.62999999999;;;10.83;65.98
68145;BME280;55400;51.824;-0.196;2023-03-24T10:11:16;98893.62999999999;;;10.90;65.98
68145;BME280;55400;51.824;-0.196;2023-03-24T10:15:16;98898.1;;;10.88;65.95
68145;BME280;55400;51.824;-0.196;2023-03-24T10:19:18;98898.1;;;10.82;64.89
68145;BME280;55400;51.824;-0.196;2023-03-24T10:23:18;98898.18000000001;;;10.81;63.72
68145;BME280;55400;51.824;-0.196;2023-03-24T10:27:15;98898.18000000001;;;10.89;63.72
68145;BME280;55400;51.824;-0.196;2023-03-24T10:31:15;98884.63;;;11.05;63.34
68145;BME280;55400;51.824;-0.196;2023-03-24T10:35:15;98886.15999999999;;;11.25;64.99
68145;BME280;55400;51.824;-0.196;2023-03-24T10:39:14;98873.75;;;11.38;64.64
68145;BME280;55400;51.824;-0.196;2023-03-24T10:43:14;98868.12999999999;;;11.49;63.30
68145;BME280;55400;51.824;-0.196;2023-03-24T10:47:14;98869.9;;;11.50;62.70
68145;BME280;55400;51.824;-0.196;2023-03-24T10:51:15;98874.98000000001;;;11.52;60.98
68145;BME280;55400;51.824;-0.196;2023-03-24T10:55:15;98874.98000000001;;;11.49;60.98
68145;BME280;55400;51.824;-0.196;2023-03-24T10:59:18;98860.47;;;11.55;59.09
68145;BME280;55400;51.824;-0.196;2023-03-24T11:03:15;98860.47;;;11.63;58.92
68145;BME280;55400;51.824;-0.196;2023-03-24T11:07:15;98859.78;;;11.75;59.70
68145;BME280;55400;51.824;-0.196;2023-03-24T11:11:26;98870.14;;;11.82;60.43
68145;BME280;55400;51.824;-0.196;2023-03-24T11:15:16;98870.14;;;11.65;58.98
68145;BME280;55400;51.824;-0.196;2023-03-24T11:19:17;98872.47;;;11.48;60.19
68145;BME280;55400;51.824;-0.196;2023-03-24T11:23:15;98874.13;;;11.40;62.23
68145;BME280;55400;51.824;-0.196;2023-03-24T11:27:14;98851.11;;;11.34;62.90
68145;BME280;55400;51.824;-0.196;2023-03-24T11:31:19;98847.83;;;11.43;63.58
68145;BME280;55400;51.824;-0.196;2023-03-24T11:35:15;98843.2;;;11.57;63.77
68145;BME280;55400;51.824;-0.196;2023-03-24T11:39:16;98843.2;;;11.60;63.77
68145;BME280;55400;51.824;-0.196;2023-03-24T11:51:14;98841.54999999999;;;11.54;61.74
68145;BME280;55400;51.824;-0.196;2023-03-24T11:55:15;98819.05;;;11.69;59.11
68145;BME280;55400;51.824;-0.196;2023-03-24T11:59:16;98826.06;;;11.93;60.18
68145;BME280;55400;51.824;-0.196;2023-03-24T12:03:19;98826.06;;;12.17;60.18
68145;BME280;55400;51.824;-0.196;2023-03-24T12:07:26;98834.59;;;12.36;59.28
68145;BME280;55400;51.824;-0.196;2023-03-24T12:11:15;98830.11;;;12.47;56.48
68145;BME280;55400;51.824;-0.196;2023-03-24T12:15:19;98815.87;;;12.50;56.53
68145;BME280;55400;51.824;-0.196;2023-03-24T12:19:22;98815.87;;;12.54;56.15
68145;BME280;55400;51.824;-0.196;2023-03-24T12:23:16;98802.37;;;12.59;55.58
68145;BME280;55400;51.824;-0.196;2023-03-24T12:27:17;98802.37;;;12.57;55.58
68145;BME280;55400;51.824;-0.196;2023-03-24T12:31:21;98846.45000000001;;;12.39;57.52
68145;BME280;55400;51.824;-0.196;2023-03-24T12:35:20;98858.39;;;12.03;61.21
68145;BME280;55400;51.824;-0.196;2023-03-24T12:39:17;98860.86;;;11.63;61.21
68145;BME280;55400;51.824;-0.196;2023-03-24T12:43:18;98870.96;;;11.17;62.65
68145;BME280;55400;51.824;-0.196;2023-03-24T12:47:18;98881.06;;;10.92;66.14
68145;BME280;55400;51.824;-0.196;2023-03-24T12:51:17;98883.04000000001;;;10.71;67.52
68145;BME280;55400;51.824;-0.196;2023-03-24T12:55:16;98883.04000000001;;;10.43;67.52
68145;BME280;55400;51.824;-0.196;2023-03-24T12:59:15;98865.99;;;10.20;70.15
68145;BME280;55400;51.824;-0.196;2023-03-24T13:03:15;98836.17;;;10.24;70.15
68145;BME280;55400;51.824;-0.196;2023-03-24T13:07:15;98830.4;;;10.36;70.70
68145;BME280;55400;51.824;-0.196;2023-03-24T13:11:14;98816.35;;;10.54;70.68
68145;BME280;55400;51.824;-0.196;2023-03-24T13:15:15;98816.35;;;10.71;70.68
68145;BME280;55400;51.824;-0.196;2023-03-24T13:19:16;98814.5;;;10.90;72.65
68145;BME280;55400;51.824;-0.196;2023-03-24T13:23:22;98809.23;;;10.99;71.38
68145;BME280;55400;51.824;-0.196;2023-03-24T13:27:17;98804.57;;;11.00;71.08
68145;BME280;55400;51.824;-0.196;2023-03-24T13:31:14;98805.72;;;10.97;71.01
68145;BME280;55400;51.824;-0.196;2023-03-24T13:35:17;98806.03;;;10.94;70.07
68145;BME280;55400;51.824;-0.196;2023-03-24T13:39:15;98807.73000000001;;;10.87;70.07
68145;BME280;55400;51.824;-0.196;2023-03-24T13:43:16;98794.86;;;10.92;69.65
68145;BME280;55400;51.824;-0.196;2023-03-24T13:47:15;98779.71;;;10.95;69.13
68145;BME280;55400;51.824;-0.196;2023-03-24T13:51:15;98772.14;;;10.98;69.13
68145;BME280;55400;51.824;-0.196;2023-03-24T13:55:18;98772.14;;;10.99;68.95
68145;BME280;55400;51.824;-0.196;2023-03-24T13:59:24;98773.58;;;10.98;68.65
68145;BME280;55400;51.824;-0.196;2023-03-24T14:03:19;98780.55;;;10.99;67.70
68145;BME280;55400;51.824;-0.196;2023-03-24T14:07:24;98778.68999999999;;;10.95;67.75
68145;BME280;55400;51.824;-0.196;2023-03-24T14:15:17;98778.91;;;10.79;66.24
68145;BME280;55400;51.824;-0.196;2023-03-24T14:19:23;98778.91;;;10.78;66.23
68145;BME280;55400;51.824;-0.196;2023-03-24T14:23:18;98770.08;;;10.87;66.02
68145;BME280;55400;51.824;-0.196;2023-03-24T14:31:23;98770.78;;;11.11;65.73
68145;BME280;55400;51.824;-0.196;2023-03-24T14:35:19;98776.64;;;11.13;65.69
68145;BME280;55400;51.824;-0.196;2023-03-24T14:39:19;98770.7;;;11.33;65.69
68145;BME280;55400;51.824;-0.196;2023-03-24T14:43:16;98778.11;;;11.55;65.10
68145;BME280;55400;51.824;-0.196;2023-03-24T14:47:15;98761.45;;;11.61;65.05
68145;BME280;55400;51.824;-0.196;2023-03-24T14:51:22;98771.92;;;11.50;64.65
68145;BME280;55400;51.824;-0.196;2023-03-24T14:55:15;98771.92;;;11.40;64.65
68145;BME280;55400;51.824;-0.196;2023-03-24T14:59:16;98763.98000000001;;;11.35;65.18
68145;BME280;55400;51.824;-0.196;2023-03-24T15:03:16;98762.66;;;11.32;66.02
68145;BME280;55400;51.824;-0.196;2023-03-24T15:07:15;98762.66;;;11.34;66.02
68145;BME280;55400;51.824;-0.196;2023-03-24T15:11:16;98783.25;;;11.23;66.02
68145;BME280;55400;51.824;-0.196;2023-03-24T15:15:15;98783.25;;;11.04;66.02
68145;BME280;55400;51.824;-0.196;2023-03-24T15:19:17;98773.71;;;11.00;67.11
68145;BME280;55400;51.824;-0.196;2023-03-24T15:23:15;98763.2;;;10.88;67.31
68145;BME280;55400;51.824;-0.196;2023-03-24T15:27:17;98763.2;;;10.78;67.31
68145;BME280;55400;51.824;-0.196;2023-03-24T15:31:15;98768.67;;;10.65;66.68
68145;BME280;55400;51.824;-0.196;2023-03-24T15:35:16;98768.67;;;10.54;66.68
68145;BME280;55400;51.824;-0.196;2023-03-24T15:39:15;98750.12000000001;;;10.42;66.65
68145;BME280;55400;51.824;-0.196;2023-03-24T15:43:15;98758.06;;;10.39;66.45
68145;BME280;55400;51.824;-0.196;2023-03-24T15:51:15;98753.09999999999;;;10.37;67.68
68145;BME280;55400;51.824;-0.196;2023-03-24T15:55:18;98752.33;;;10.40;67.05
68145;BME280;55400;51.824;-0.196;2023-03-24T15:59:15;98749.44;;;10.45;67.17
68145;BME280;55400;51.824;-0.196;2023-03-24T16:03:15;98741.63;;;10.69;66.07
68145;BME280;55400;51.824;-0.196;2023-03-24T16:07:20;98750.03;;;10.92;66.07
68145;BME280;55400;51.824;-0.196;2023-03-24T16:11:15;98744.17;;;11.22;65.18
68145;BME280;55400;51.824;-0.196;2023-03-24T16:15:15;98744.17;;;11.50;65.18
68145;BME280;55400;51.824;-0.196;2023-03-24T16:19:15;98747.79999999999;;;11.41;64.18
68145;BME280;55400;51.824;-0.196;2023-03-24T16:23:15;98763.44;;;11.28;64.04
68145;BME280;55400;51.824;-0.196;2023-03-24T16:27:15;98747.34;;;11.06;64.04
68145;BME280;55400;51.824;-0.196;2023-03-24T16:31:16;98752.21;;;10.93;64.71
68145;BME280;55400;51.824;-0.196;2023-03-24T16:35:15;98752.21;;;10.76;64.99
68145;BME280;55400;51.824;-0.196;2023-03-24T16:39:15;98750.05;;;10.66;65.79
68145;BME280;55400;51.824;-0.196;2023-03-24T16:43:15;98751.12000000001;;;10.65;66.04
68145;BME280;55400;51.824;-0.196;2023-03-24T16:47:15;98746.46;;;10.53;65.99
68145;BME280;55400;51.824;-0.196;2023-03-24T16:51:15;98751.95;;;10.47;65.99
68145;BME280;55400;51.824;-0.196;2023-03-24T16:55:15;98751.95;;;10.43;66.31
68145;BME280;55400;51.824;-0.196;2023-03-24T17:03:15;98736.69;;;10.28;65.17
68145;BME280;55400;51.824;-0.196;2023-03-24T17:07:15;98738.23;;;10.07;66.45
68145;BME280;55400;51.824;-0.196;2023-03-24T17:11:15;98740.78;;;9.95;67.36
68145;BME280;55400;51.824;-0.196;2023-03-24T17:15:16;98742.76999999999;;;9.78;67.99
68145;BME280;55400;51.824;-0.196;2023-03-24T17:19:16;98743.0;;;9.77;68.31
68145;BME280;55400;51.824;-0.196;2023-03-24T17:23:15;98743.0;;;9.74;68.68
68145;BME280;55400;51.824;-0.196;2023-03-24T17:27:16;98754.16;;;9.72;68.70
68145;BME280;55400;51.824;-0.196;2023-03-24T17:31:15;98757.19;;;9.73;68.76
68145;BME280;55400;51.824;-0.196;2023-03-24T17:35:16;98758.95000000001;;;9.87;68.54
68145;BME280;55400;51.824;-0.196;2023-03-24T17:39:16;98766.04999999999;;;10.07;68.54
68145;BME280;55400;51.824;-0.196;2023-03-24T17:43:15;98760.78;;;10.02;67.92
68145;BME280;55400;51.824;-0.196;2023-03-24T17:47:15;98760.32;;;9.94;67.92
68145;BME280;55400;51.824;-0.196;2023-03-24T17:51:15;98760.32;;;9.84;68.10
68145;BME280;55400;51.824;-0.196;2023-03-24T17:55:15;98757.26;;;9.76;68.17
68145;BME280;55400;51.824;-0.196;2023-03-24T17:59:15;98762.2;;;9.71;68.70
68145;BME280;55400;51.824;-0.196;2023-03-24T18:03:15;98758.23000000001;;;9.73;68.93
68145;BME280;55400;51.824;-0.196;2023-03-24T18:07:15;98760.05;;;9.70;68.80
68145;BME280;55400;51.824;-0.196;2023-03-24T18:15:15;98749.22;;;9.62;68.88
68145;BME280;55400;51.824;-0.196;2023-03-24T18:19:15;98749.22;;;9.56;68.84
68145;BME280;55400;51.824;-0.196;2023-03-24T18:23:15;98764.63;;;9.39;68.99
68145;BME280;55400;51.824;-0.196;2023-03-24T18:27:15;98764.63;;;9.36;69.31
68145;BME280;55400;51.824;-0.196;2023-03-24T18:31:16;98768.84;;;9.32;69.34
68145;BME280;55400;51.824;-0.196;2023-03-24T18:35:15;98767.40999999999;;;9.28;69.50
68145;BME280;55400;51.824;-0.196;2023-03-24T18:39:15;98769.51000000001;;;9.20;69.50
68145;BME280;55400;51.824;-0.196;2023-03-24T18:43:15;98776.84000000001;;;9.16;69.53
68145;BME280;55400;51.824;-0.196;2023-03-24T18:47:15;98776.84000000001;;;9.07;69.75
68145;BME280;55400;51.824;-0.196;2023-03-24T18:51:15;98781.36;;;9.06;70.05
68145;BME280;55400;51.824;-0.196;2023-03-24T18:55:15;98781.84;;;9.08;70.27
68145;BME280;55400;51.824;-0.196;2023-03-24T18:59:15;98771.47;;;9.09;70.39
68145;BME280;55400;51.824;-0.196;2023-03-24T19:03:16;98778.3;;;9.13;70.53
68145;BME280;55400;51.824;-0.196;2023-03-24T19:07:15;98782.56;;;9.00;70.53
68145;BME280;55400;51.824;-0.196;2023-03-24T19:11:16;98782.56;;;8.93;70.94
68145;BME280;55400;51.824;-0.196;2023-03-24T19:15:15;98791.35;;;8.85;71.35
68145;BME280;55400;51.824;-0.196;2023-03-24T19:19:15;98796.73;;;8.83;71.68
68145;BME280;55400;51.824;-0.196;2023-03-24T19:27:16;98789.26;;;8.80;71.79
68145;BME280;55400;51.824;-0.196;2023-03-24T19:31:16;98799.41;;;8.81;72.08
68145;BME280;55400;51.824;-0.196;2023-03-24T19:35:16;98793.89;;;8.80;72.11
68145;BME280;55400;51.824;-0.196;2023-03-24T19:39:15;98786.15999999999;;;8.78;72.11
68145;BME280;55400;51.824;-0.196;2023-03-24T19:43:16;98784.19;;;8.75;72.11
68145;BME280;55400;51.824;-0.196;2023-03-24T19:47:15;98782.78;;;8.73;72.17
68145;BME280;55400;51.824;-0.196;2023-03-24T19:51:16;98790.63;;;8.68;72.27
68145;BME280;55400;51.824;-0.196;2023-03-24T19:55:15;98790.63;;;8.64;72.59
68145;BME280;55400;51.824;-0.196;2023-03-24T19:59:16;98784.84;;;8.65;72.62
68145;BME280;55400;51.824;-0.196;2023-03-24T20:03:16;98777.09999999999;;;8.60;72.49
68145;BME280;55400;51.824;-0.196;2023-03-24T20:07:16;98777.09999999999;;;8.59;72.67
68145;BME280;55400;51.824;-0.196;2023-03-24T20:15:16;98782.5;;;8.58;72.95
68145;BME280;55400;51.824;-0.196;2023-03-24T20:19:16;98791.36;;;8.57;73.03
68145;BME280;55400;51.824;-0.196;2023-03-24T20:23:16;98791.36;;;8.56;73.05
68145;BME280;55400;51.824;-0.196;2023-03-24T20:27:16;98791.13;;;8.57;73.14
68145;BME280;55400;51.824;-0.196;2023-03-24T20:35:16;98800.64;;;8.58;73.46
68145;BME280;55400;51.824;-0.196;2023-03-24T20:39:16;98800.64;;;8.62;73.46
68145;BME280;55400;51.824;-0.196;2023-03-24T20:43:16;98790.28;;;8.63;73.35
68145;BME280;55400;51.824;-0.196;2023-03-24T20:47:16;98791.28;;;8.62;73.37
68145;BME280;55400;51.824;-0.196;2023-03-24T20:51:16;98798.79;;;8.61;73.36
68145;BME280;55400;51.824;-0.196;2023-03-24T20:55:16;98798.79;;;8.60;73.36
68145;BME280;55400;51.824;-0.196;2023-03-24T20:59:16;98806.0;;;8.57;73.46
68145;BME280;55400;51.824;-0.196;2023-03-24T21:03:16;98793.81;;;8.56;73.77
68145;BME280;55400;51.824;-0.196;2023-03-24T21:07:16;98800.05;;;8.57;73.54
68145;BME280;55400;51.824;-0.196;2023-03-24T21:11:16;98800.05;;;8.55;73.54
68145;BME280;55400;51.824;-0.196;2023-03-24T21:15:16;98808.36;;;8.58;73.72
68145;BME280;55400;51.824;-0.196;2023-03-24T21:19:16;98808.91;;;8.53;73.45
68145;BME280;55400;51.824;-0.196;2023-03-24T21:23:16;98809.31;;;8.52;73.58
68145;BME280;55400;51.824;-0.196;2023-03-24T21:27:16;98806.41;;;8.53;73.70
68145;BME280;55400;51.824;-0.196;2023-03-24T21:31:17;98814.03;;;8.50;73.70
68145;BME280;55400;51.824;-0.196;2023-03-24T21:35:16;98805.42;;;8.56;73.70
68145;BME280;55400;51.824;-0.196;2023-03-24T21:43:16;98799.73;;;8.58;73.85
68145;BME280;55400;51.824;-0.196;2023-03-24T21:47:16;98806.16;;;8.62;73.80
68145;BME280;55400;51.824;-0.196;2023-03-24T21:51:17;98806.53;;;8.57;73.95
68145;BME280;55400;51.824;-0.196;2023-03-24T21:55:16;98809.45;;;8.56;73.95
68145;BME280;55400;51.824;-0.196;2023-03-24T21:59:16;98818.75;;;8.59;74.19
68145;BME280;55400;51.824;-0.196;2023-03-24T22:03:16;98814.83;;;8.63;74.08
68145;BME280;55400;51.824;-0.196;2023-03-24T22:07:16;98818.26999999999;;;8.65;74.00
68145;BME280;55400;51.824;-0.196;2023-03-24T22:11:16;98818.26999999999;;;8.62;74.00